Time;durP1;ratioP1;P1;durP2;ratioP2;P2;SDS_P1;SDS_P2;PMS_P1;PMS_P2;Temp;Humidity;BMP_temperature;BMP_pressure;BME280_temperature;BME280_humidity;BME280_pressure;Samples;Min_cycle;Max_cycle;Signal;HPM_P1;HPM_P2
2023/12/25 00:01:30;;;;;;;277.65;260.52;;;11.60;99.90;;;;;;12332603;28;20058;-36
2023/12/25 00:07:32;;;;;;;278.73;261.48;;;11.50;99.90;;;;;;12334201;28;20047;-36
2023/12/25 00:13:34;;;;;;;224.98;210.70;;;11.40;99.90;;;;;;12330763;28;20047;-36
2023/12/25 00:19:37;;;;;;;227.27;212.90;;;11.50;99.90;;;;;;12331463;28;20066;-36
2023/12/25 00:25:39;;;;;;;194.90;182.43;;;11.60;99.90;;;;;;12316066;28;20051;-36
2023/12/25 00:31:41;;;;;;;212.43;199.13;;;11.70;99.90;;;;;;12350003;28;20122;-36
2023/12/25 00:37:43;;;;;;;257.95;242.02;;;11.70;99.90;;;;;;12327367;28;20055;-35
2023/12/25 00:43:45;;;;;;;249.48;233.98;;;11.60;99.90;;;;;;12312968;28;20054;-36
2023/12/25 00:49:47;;;;;;;252.35;236.77;;;11.70;99.90;;;;;;12319474;28;20085;-36
2023/12/25 00:55:49;;;;;;;247.15;231.85;;;11.70;99.90;;;;;;12313624;28;20385;-36
2023/12/25 01:01:51;;;;;;;242.25;227.35;;;11.60;99.90;;;;;;12326322;28;20089;-36
2023/12/25 01:07:53;;;;;;;249.60;234.07;;;11.70;99.90;;;;;;12326422;28;20050;-36
2023/12/25 01:13:55;;;;;;;297.08;278.58;;;11.70;99.90;;;;;;12326098;28;20564;-36
2023/12/25 01:19:57;;;;;;;263.33;247.00;;;11.60;99.90;;;;;;12322553;28;20066;-36
2023/12/25 01:25:59;;;;;;;236.75;221.98;;;11.50;99.90;;;;;;12320695;28;20058;-36
2023/12/25 01:32:00;;;;;;;187.00;175.15;;;11.50;99.90;;;;;;12313144;28;20163;-36
2023/12/25 01:38:03;;;;;;;187.10;175.20;;;11.60;99.90;;;;;;12339423;28;20475;-36
2023/12/25 01:44:05;;;;;;;170.32;159.32;;;11.50;99.90;;;;;;12323475;28;20055;-36
2023/12/25 01:50:21;;;;;;;174.05;162.77;;;11.30;99.90;;;;;;12339372;28;20137;-36
2023/12/25 01:56:23;;;;;;;178.23;166.38;;;11.30;99.90;;;;;;12317191;28;20218;-37
2023/12/25 02:02:25;;;;;;;163.95;153.18;;;11.20;99.90;;;;;;12325985;28;20051;-36
2023/12/25 02:08:28;;;;;;;173.55;162.25;;;11.20;99.90;;;;;;12319938;28;20502;-35
2023/12/25 02:14:30;;;;;;;166.90;156.07;;;11.20;99.90;;;;;;12355793;28;20051;-36
2023/12/25 02:20:33;;;;;;;147.52;138.02;;;11.20;99.90;;;;;;12322880;28;20058;-36
2023/12/25 02:26:35;;;;;;;158.70;148.43;;;11.40;99.90;;;;;;12316023;28;20063;-35
2023/12/25 02:32:37;;;;;;;167.13;156.10;;;11.50;99.90;;;;;;12319934;28;20419;-36
2023/12/25 02:38:39;;;;;;;168.13;157.15;;;11.40;99.90;;;;;;12330148;28;20081;-36
2023/12/25 02:44:41;;;;;;;172.75;161.35;;;11.40;99.90;;;;;;12338010;28;20078;-36
2023/12/25 02:50:43;;;;;;;190.23;177.82;;;11.50;99.90;;;;;;12317300;28;20058;-36
2023/12/25 02:56:45;;;;;;;169.13;157.95;;;11.40;99.90;;;;;;12326983;28;20081;-36
2023/12/25 03:02:47;;;;;;;184.85;172.63;;;11.40;99.90;;;;;;12328788;28;20047;-36
2023/12/25 03:08:49;;;;;;;192.00;179.40;;;11.40;99.90;;;;;;12327347;28;20046;-36
2023/12/25 03:14:51;;;;;;;212.70;199.07;;;11.40;99.90;;;;;;12342154;28;20051;-36
2023/12/25 03:20:54;;;;;;;187.88;175.55;;;11.40;99.90;;;;;;12337994;28;20123;-35
2023/12/25 03:26:56;;;;;;;175.80;164.20;;;11.30;99.90;;;;;;12325273;28;20043;-36
2023/12/25 03:32:58;;;;;;;166.13;155.15;;;11.30;99.90;;;;;;12327426;28;20096;-36
2023/12/25 03:39:00;;;;;;;151.25;141.00;;;11.40;99.90;;;;;;12333335;28;20054;-36
2023/12/25 03:45:02;;;;;;;154.93;144.52;;;11.30;99.90;;;;;;12332146;28;20050;-35
2023/12/25 03:51:04;;;;;;;154.82;144.45;;;11.30;99.90;;;;;;12328380;28;20134;-36
2023/12/25 03:57:08;;;;;;;161.65;151.00;;;11.30;99.90;;;;;;12320950;28;20146;-36
2023/12/25 04:03:11;;;;;;;161.20;150.33;;;11.30;99.90;;;;;;12316488;28;20180;-36
2023/12/25 04:09:13;;;;;;;158.18;147.43;;;11.20;99.90;;;;;;12327227;28;20050;-36
2023/12/25 04:15:15;;;;;;;190.13;177.43;;;11.20;99.90;;;;;;12325312;28;20070;-36
2023/12/25 04:21:27;;;;;;;165.10;153.98;;;11.10;99.90;;;;;;12326538;28;20074;-36
2023/12/25 04:27:28;;;;;;;182.10;169.90;;;11.10;99.90;;;;;;12328733;28;20074;-36
2023/12/25 04:33:30;;;;;;;174.20;162.30;;;11.10;99.90;;;;;;12330681;28;20047;-35
2023/12/25 04:39:33;;;;;;;181.05;168.90;;;11.10;99.90;;;;;;12350634;28;20063;-36
2023/12/25 04:45:35;;;;;;;200.63;187.20;;;11.00;99.90;;;;;;12336801;28;20074;-36
2023/12/25 04:51:37;;;;;;;186.65;174.13;;;10.90;99.90;;;;;;12326368;28;20047;-36
2023/12/25 04:57:39;;;;;;;181.32;168.95;;;10.90;99.90;;;;;;12323214;28;20051;-36
2023/12/25 05:03:41;;;;;;;199.00;185.75;;;10.80;99.90;;;;;;12331103;28;20070;-36
2023/12/25 05:09:43;;;;;;;197.02;183.93;;;10.60;99.90;;;;;;12349394;28;20074;-36
2023/12/25 05:15:45;;;;;;;191.52;178.48;;;10.50;99.90;;;;;;12317699;28;20548;-36
2023/12/25 05:21:47;;;;;;;203.55;190.15;;;10.50;99.90;;;;;;12335407;28;20050;-36
2023/12/25 05:27:49;;;;;;;219.32;205.10;;;10.50;99.90;;;;;;12336670;28;20066;-36
2023/12/25 05:33:51;;;;;;;226.15;211.88;;;10.30;99.90;;;;;;12328570;28;20043;-36
2023/12/25 05:39:53;;;;;;;229.27;214.50;;;10.10;99.90;;;;;;12325359;28;20050;-36
2023/12/25 05:45:55;;;;;;;196.30;183.43;;;10.10;99.90;;;;;;12329251;28;20085;-36
2023/12/25 05:51:57;;;;;;;185.90;173.57;;;10.10;99.90;;;;;;12332965;28;20418;-36
2023/12/25 05:57:58;;;;;;;172.88;161.63;;;10.10;99.90;;;;;;12330236;28;20160;-35
2023/12/25 06:04:01;;;;;;;171.25;160.02;;;10.30;99.90;;;;;;12324109;28;20535;-35
2023/12/25 06:10:03;;;;;;;177.60;165.80;;;10.40;99.90;;;;;;12321679;28;20043;-36
2023/12/25 06:16:06;;;;;;;197.95;184.98;;;10.40;99.90;;;;;;12321528;28;20411;-36
2023/12/25 06:22:08;;;;;;;203.30;190.10;;;10.40;99.90;;;;;;12322069;28;20051;-35
2023/12/25 06:28:10;;;;;;;219.98;205.93;;;10.30;99.90;;;;;;12336003;28;20141;-35
2023/12/25 06:34:13;;;;;;;211.13;197.45;;;10.20;99.90;;;;;;12326114;28;20434;-36
2023/12/25 06:40:15;;;;;;;199.23;186.43;;;10.20;99.90;;;;;;12324818;28;20451;-35
2023/12/25 06:46:16;;;;;;;201.32;188.00;;;10.20;99.90;;;;;;12330648;28;20079;-35
2023/12/25 06:52:19;;;;;;;222.93;208.73;;;10.20;99.90;;;;;;12341483;28;20192;-35
2023/12/25 06:58:20;;;;;;;251.63;235.90;;;10.20;99.90;;;;;;12339026;28;20070;-36
2023/12/25 07:04:23;;;;;;;255.00;238.93;;;10.20;99.90;;;;;;12334787;28;20051;-36
2023/12/25 07:10:25;;;;;;;257.83;241.63;;;10.20;99.90;;;;;;12343928;28;20050;-36
2023/12/25 07:16:26;;;;;;;240.32;225.02;;;10.20;99.90;;;;;;12327040;28;20523;-36
2023/12/25 07:22:29;;;;;;;239.40;224.25;;;10.30;99.90;;;;;;12336824;28;20089;-36
2023/12/25 07:28:31;;;;;;;238.27;223.18;;;10.30;99.90;;;;;;12336859;28;20499;-36
2023/12/25 07:34:32;;;;;;;227.52;213.13;;;10.40;99.90;;;;;;12336969;28;20077;-36
2023/12/25 07:40:35;;;;;;;201.65;188.13;;;10.50;99.90;;;;;;12334095;28;20058;-36
2023/12/25 07:46:37;;;;;;;208.75;195.23;;;10.60;99.90;;;;;;12331116;28;20054;-36
2023/12/25 07:52:39;;;;;;;196.75;183.75;;;10.60;99.90;;;;;;12319051;28;20043;-36
2023/12/25 07:58:40;;;;;;;158.77;147.98;;;10.70;99.90;;;;;;12332109;28;20430;-36
2023/12/25 08:04:42;;;;;;;179.55;167.57;;;10.70;99.90;;;;;;12317819;28;20051;-36
2023/12/25 08:10:45;;;;;;;199.90;186.80;;;10.70;99.90;;;;;;12329084;28;20185;-36
2023/12/25 08:16:46;;;;;;;194.85;181.93;;;10.70;99.90;;;;;;12331424;28;20188;-36
2023/12/25 08:22:48;;;;;;;197.20;184.32;;;10.70;99.90;;;;;;12325052;28;20415;-36
2023/12/25 08:28:52;;;;;;;199.10;185.55;;;10.70;99.90;;;;;;12330055;28;20418;-36
2023/12/25 08:34:54;;;;;;;238.20;222.90;;;10.70;99.90;;;;;;12329028;28;20091;-36
2023/12/25 08:40:57;;;;;;;252.93;236.63;;;10.60;99.90;;;;;;12329920;28;20550;-36
2023/12/25 08:46:59;;;;;;;258.45;241.85;;;10.50;99.90;;;;;;12319893;28;20173;-36
2023/12/25 08:53:02;;;;;;;244.90;229.20;;;10.50;99.90;;;;;;12331905;28;20047;-36
2023/12/25 08:59:05;;;;;;;197.35;184.63;;;10.50;99.90;;;;;;12325047;28;20506;-36
2023/12/25 09:05:08;;;;;;;194.02;181.40;;;10.60;99.90;;;;;;12328425;28;20077;-36
2023/12/25 09:11:10;;;;;;;207.10;193.93;;;10.60;99.90;;;;;;12335561;28;20050;-36
2023/12/25 09:17:12;;;;;;;179.23;167.60;;;10.60;99.90;;;;;;12320055;28;20059;-36
2023/12/25 09:23:14;;;;;;;186.18;173.93;;;10.60;99.90;;;;;;12329905;28;20100;-36
2023/12/25 09:29:16;;;;;;;205.35;192.15;;;10.70;99.90;;;;;;12332128;28;20156;-36
2023/12/25 09:35:18;;;;;;;191.05;178.80;;;10.70;99.90;;;;;;12333124;28;20043;-36
2023/12/25 09:41:23;;;;;;;191.10;178.52;;;10.70;99.90;;;;;;12321872;28;20423;-36
2023/12/25 09:47:26;;;;;;;213.57;199.90;;;10.80;99.90;;;;;;12330080;28;20054;-36
2023/12/25 09:53:28;;;;;;;221.82;207.68;;;10.70;99.90;;;;;;12329487;28;20043;-36
2023/12/25 09:59:31;;;;;;;223.45;208.98;;;10.70;99.90;;;;;;12321237;28;20050;-36
2023/12/25 10:05:33;;;;;;;210.45;196.65;;;10.70;99.90;;;;;;12329171;28;20046;-36
2023/12/25 10:11:36;;;;;;;208.38;194.93;;;10.80;99.90;;;;;;12328465;28;20038;-36
2023/12/25 10:17:38;;;;;;;212.63;199.00;;;10.80;99.90;;;;;;12335358;28;20101;-36
2023/12/25 10:23:40;;;;;;;210.93;197.32;;;10.90;99.90;;;;;;12329149;28;20378;-36
2023/12/25 10:29:42;;;;;;;202.07;189.18;;;10.70;99.90;;;;;;12331788;28;20047;-36
2023/12/25 10:36:07;;;;;;;224.95;210.65;;;10.70;99.90;;;;;;12336043;28;20047;-36
2023/12/25 10:42:12;;;;;;;224.25;210.18;;;10.70;99.90;;;;;;12339492;28;20451;-36
2023/12/25 10:48:14;;;;;;;208.63;195.18;;;10.70;99.90;;;;;;12336346;28;20062;-36
2023/12/25 10:54:19;;;;;;;210.80;197.35;;;10.70;99.90;;;;;;12317616;28;20090;-36
2023/12/25 11:00:22;;;;;;;;;;;10.70;99.90;;;;;;12330843;28;20062;-36
2023/12/25 11:06:24;;;;;;;251.90;236.35;;;10.80;99.90;;;;;;12326054;28;19922;-36
2023/12/25 11:12:27;;;;;;;263.88;247.70;;;10.90;99.90;;;;;;12336331;28;20112;-36
2023/12/25 11:18:29;;;;;;;251.93;236.32;;;10.80;99.90;;;;;;12334974;28;20531;-36
2023/12/25 11:24:33;;;;;;;241.93;226.73;;;10.80;99.90;;;;;;12326601;28;20055;-36
2023/12/25 11:30:36;;;;;;;232.53;217.77;;;10.80;99.90;;;;;;12335164;28;20503;-36
2023/12/25 11:36:38;;;;;;;226.70;212.35;;;10.80;99.90;;;;;;12324317;28;20107;-36
2023/12/25 11:42:41;;;;;;;193.20;180.82;;;10.80;99.90;;;;;;12338528;28;20054;-36
2023/12/25 11:48:45;;;;;;;202.63;189.93;;;10.70;99.90;;;;;;12327173;28;20051;-36
2023/12/25 11:54:48;;;;;;;208.07;195.20;;;10.80;99.90;;;;;;12331158;28;20055;-36
2023/12/25 12:00:49;;;;;;;192.75;180.90;;;10.70;99.90;;;;;;12337225;28;20529;-36
2023/12/25 12:06:51;;;;;;;214.32;200.88;;;10.80;99.90;;;;;;12336533;28;20058;-36
2023/12/25 12:12:54;;;;;;;210.93;197.55;;;10.80;99.90;;;;;;12337856;28;20493;-36
2023/12/25 12:18:56;;;;;;;233.77;218.80;;;10.70;99.90;;;;;;12334014;28;20055;-36
2023/12/25 12:25:20;;;;;;;193.40;181.13;;;10.60;99.90;;;;;;12326233;28;20051;-36
2023/12/25 12:31:22;;;;;;;197.20;184.50;;;10.50;99.90;;;;;;12322793;28;20051;-36
2023/12/25 12:37:25;;;;;;;215.38;201.65;;;10.40;99.90;;;;;;12329756;28;20072;-36
2023/12/25 12:43:27;;;;;;;232.35;217.50;;;10.10;99.90;;;;;;12335821;28;20089;-36
2023/12/25 12:49:30;;;;;;;250.23;234.63;;;9.90;99.90;;;;;;12321966;28;20090;-36
2023/12/25 12:55:36;;;;;;;256.52;240.65;;;9.80;99.90;;;;;;12314599;28;20057;-36
2023/12/25 13:01:37;;;;;;;275.33;258.73;;;9.90;99.90;;;;;;12322533;28;20047;-36
2023/12/25 13:07:39;;;;;;;303.95;285.30;;;10.00;99.90;;;;;;12335999;28;20553;-36
2023/12/25 13:13:41;;;;;;;308.08;289.25;;;10.00;99.90;;;;;;12334153;28;20042;-36
2023/12/25 13:19:43;;;;;;;325.58;305.85;;;10.20;99.90;;;;;;12332413;28;20050;-36
2023/12/25 13:25:45;;;;;;;308.27;289.67;;;10.00;99.90;;;;;;12334824;28;20051;-36
2023/12/25 13:31:47;;;;;;;303.48;285.08;;;9.90;99.90;;;;;;12327720;28;20403;-36
2023/12/25 13:37:50;;;;;;;309.35;290.45;;;9.90;99.90;;;;;;12328872;28;20053;-35
2023/12/25 13:43:54;;;;;;;318.67;299.00;;;10.00;99.90;;;;;;12339627;28;20065;-36
2023/12/25 13:50:00;;;;;;;317.77;298.10;;;9.70;99.90;;;;;;12322442;28;20704;-36
2023/12/25 13:56:03;;;;;;;320.40;300.63;;;9.80;99.90;;;;;;12309841;28;20488;-36
2023/12/25 14:02:07;;;;;;;322.17;302.15;;;9.80;99.90;;;;;;12327995;28;20054;-36
2023/12/25 14:08:10;;;;;;;;;;;9.80;99.90;;;;;;12329340;28;20075;-36
2023/12/25 14:14:11;;;;;;;321.98;302.23;;;9.60;99.90;;;;;;12327071;28;19926;-36
2023/12/25 14:20:13;;;;;;;305.42;286.98;;;9.50;99.90;;;;;;12330861;28;20066;-36
2023/12/25 14:26:15;;;;;;;312.42;293.13;;;9.50;99.90;;;;;;12325481;28;20051;-36
2023/12/25 14:32:17;;;;;;;301.08;282.90;;;9.40;99.90;;;;;;12328831;28;20082;-36
2023/12/25 14:38:19;;;;;;;304.88;286.25;;;9.40;99.90;;;;;;12331346;28;20047;-36
2023/12/25 14:44:21;;;;;;;308.63;289.85;;;9.40;99.90;;;;;;12340341;28;20051;-36
2023/12/25 14:50:23;;;;;;;307.83;289.08;;;9.40;99.90;;;;;;12322252;28;20051;-35
2023/12/25 14:56:25;;;;;;;284.65;267.25;;;9.50;99.90;;;;;;12321883;28;20051;-36
2023/12/25 15:02:27;;;;;;;296.75;278.95;;;9.40;99.90;;;;;;12322551;28;20430;-36
2023/12/25 15:08:29;;;;;;;280.60;263.65;;;9.40;99.90;;;;;;12334385;28;20137;-36
2023/12/25 15:14:32;;;;;;;279.95;263.17;;;9.40;99.90;;;;;;12333703;28;20043;-35
2023/12/25 15:20:34;;;;;;;281.75;264.92;;;9.40;99.90;;;;;;12321229;28;20404;-35
2023/12/25 15:26:36;;;;;;;282.13;265.13;;;9.40;99.90;;;;;;12334366;28;20051;-36
2023/12/25 15:32:38;;;;;;;263.63;247.43;;;9.50;99.90;;;;;;12330870;28;20058;-36
2023/12/25 15:38:40;;;;;;;267.60;251.38;;;9.50;99.90;;;;;;12327242;28;20415;-36
2023/12/25 15:44:42;;;;;;;247.45;232.40;;;9.50;99.90;;;;;;12343471;28;20072;-36
2023/12/25 15:50:44;;;;;;;246.63;231.23;;;9.50;99.90;;;;;;12332797;28;20050;-36
2023/12/25 15:56:46;;;;;;;265.63;249.00;;;9.60;99.90;;;;;;12331566;28;20039;-36
2023/12/25 16:02:48;;;;;;;267.27;250.63;;;9.60;99.90;;;;;;12333874;28;20459;-36
2023/12/25 16:08:50;;;;;;;263.73;247.32;;;9.60;99.90;;;;;;12376458;28;20054;-36
2023/12/25 16:14:52;;;;;;;253.15;237.40;;;9.70;99.90;;;;;;12329296;28;20396;-36
2023/12/25 16:20:54;;;;;;;252.85;236.93;;;9.80;99.90;;;;;;12336989;28;20066;-36
2023/12/25 16:26:57;;;;;;;240.73;225.55;;;9.70;99.90;;;;;;12331293;28;20058;-36
2023/12/25 16:32:59;;;;;;;260.35;243.93;;;9.70;99.90;;;;;;12328356;28;20180;-36
2023/12/25 16:39:03;;;;;;;267.45;250.52;;;9.60;99.90;;;;;;12337105;28;20051;-36
2023/12/25 16:45:05;;;;;;;258.85;242.45;;;9.50;99.90;;;;;;12316640;28;20050;-36
2023/12/25 16:51:07;;;;;;;252.25;236.27;;;9.40;99.90;;;;;;12322825;28;20046;-36
2023/12/25 16:57:09;;;;;;;254.55;238.50;;;9.40;99.90;;;;;;12322955;28;20050;-36
2023/12/25 17:03:11;;;;;;;253.23;237.20;;;9.40;99.90;;;;;;12327175;28;20085;-36
2023/12/25 17:09:13;;;;;;;261.98;245.45;;;9.30;99.90;;;;;;12337823;28;20050;-36
2023/12/25 17:15:15;;;;;;;257.75;241.10;;;9.40;99.90;;;;;;12330938;28;20491;-33
2023/12/25 17:21:20;;;;;;;261.80;245.30;;;9.40;99.90;;;;;;12323437;28;20403;-36
2023/12/25 17:27:22;;;;;;;256.85;240.65;;;9.40;99.90;;;;;;12316927;28;20407;-36
2023/12/25 17:33:24;;;;;;;254.40;238.50;;;9.30;99.90;;;;;;12324793;28;20050;-36
2023/12/25 17:39:26;;;;;;;258.55;242.30;;;9.40;99.90;;;;;;12331088;28;20396;-36
2023/12/25 17:45:28;;;;;;;262.77;246.35;;;9.30;99.90;;;;;;12326858;28;20423;-36
2023/12/25 17:51:30;;;;;;;253.02;237.02;;;9.40;99.90;;;;;;12333493;28;20055;-36
2023/12/25 17:57:33;;;;;;;258.98;242.70;;;9.40;99.90;;;;;;12328372;28;20053;-36
2023/12/25 18:03:35;;;;;;;265.70;249.05;;;9.40;99.90;;;;;;12333940;28;20054;-36
2023/12/25 18:09:38;;;;;;;274.83;257.80;;;9.50;99.90;;;;;;12338098;28;20104;-36
2023/12/25 18:15:40;;;;;;;278.85;261.60;;;9.50;99.90;;;;;;12325427;28;20059;-36
2023/12/25 18:21:44;;;;;;;264.38;247.95;;;9.50;99.90;;;;;;12327391;28;20115;-36
2023/12/25 18:27:46;;;;;;;246.65;231.13;;;9.40;99.90;;;;;;12331028;28;20051;-36
2023/12/25 18:33:49;;;;;;;259.38;243.32;;;9.40;99.90;;;;;;12333925;28;20049;-36
2023/12/25 18:39:51;;;;;;;274.23;256.98;;;9.50;99.90;;;;;;12336509;28;20384;-36
2023/12/25 18:45:53;;;;;;;283.50;265.60;;;9.60;99.90;;;;;;12342005;28;20046;-36
2023/12/25 18:51:55;;;;;;;309.88;290.73;;;9.50;99.90;;;;;;12332436;28;20077;-36
2023/12/25 18:57:57;;;;;;;319.70;300.13;;;9.50;99.90;;;;;;12325967;28;20089;-36
2023/12/25 19:04:00;;;;;;;319.15;299.52;;;9.40;99.90;;;;;;12337019;28;20086;-36
2023/12/25 19:10:03;;;;;;;337.40;316.90;;;9.40;99.90;;;;;;12334164;28;20050;-36
2023/12/25 19:16:06;;;;;;;337.87;317.53;;;9.40;99.90;;;;;;12335153;28;20054;-36
2023/12/25 19:22:08;;;;;;;342.73;322.05;;;9.50;99.90;;;;;;12328262;28;20291;-37
2023/12/25 19:28:10;;;;;;;376.30;353.38;;;9.40;99.90;;;;;;12328881;28;20082;-36
2023/12/25 19:34:12;;;;;;;368.60;345.77;;;9.60;99.90;;;;;;12330922;28;21072;-36
2023/12/25 19:40:14;;;;;;;355.52;333.77;;;9.60;99.90;;;;;;12335244;28;20051;-36
2023/12/25 19:46:17;;;;;;;356.85;334.92;;;9.60;99.90;;;;;;12332754;28;20134;-36
2023/12/25 19:52:18;;;;;;;367.00;344.58;;;9.70;99.90;;;;;;12323662;28;20058;-36
2023/12/25 19:58:21;;;;;;;352.90;331.15;;;9.70;99.90;;;;;;12327632;28;20046;-36
2023/12/25 20:04:23;;;;;;;359.92;337.40;;;9.80;99.90;;;;;;12321220;28;20522;-36
2023/12/25 20:10:25;;;;;;;362.88;340.27;;;9.80;99.90;;;;;;12325842;28;20047;-36
2023/12/25 20:16:27;;;;;;;370.15;346.80;;;9.80;99.90;;;;;;12331636;28;20061;-36
2023/12/25 20:22:29;;;;;;;395.10;370.05;;;10.00;99.90;;;;;;12336715;28;20125;-36
2023/12/25 20:28:31;;;;;;;422.27;395.35;;;10.00;99.90;;;;;;12334888;28;20058;-36
2023/12/25 20:34:34;;;;;;;419.17;392.83;;;9.90;99.90;;;;;;12318753;28;20054;-36
2023/12/25 20:40:36;;;;;;;420.03;393.53;;;9.90;99.90;;;;;;12327334;28;20512;-36
2023/12/25 20:46:38;;;;;;;381.90;357.65;;;9.90;99.90;;;;;;12333287;28;20050;-35
2023/12/25 20:52:40;;;;;;;397.98;373.33;;;9.90;99.90;;;;;;12325697;28;20127;-36
2023/12/25 20:58:42;;;;;;;417.50;391.67;;;9.90;99.90;;;;;;12322487;28;20047;-36
2023/12/25 21:04:44;;;;;;;381.55;358.33;;;9.90;99.90;;;;;;12329629;28;20046;-35
2023/12/25 21:10:46;;;;;;;378.25;354.88;;;9.80;99.90;;;;;;12329353;28;20050;-36
2023/12/25 21:16:48;;;;;;;380.73;357.17;;;9.80;99.90;;;;;;12339816;28;20045;-36
2023/12/25 21:22:50;;;;;;;383.35;359.77;;;9.80;99.90;;;;;;12311648;28;20055;-36
2023/12/25 21:28:51;;;;;;;391.73;367.92;;;9.80;99.90;;;;;;12333313;28;20093;-36
2023/12/25 21:34:53;;;;;;;368.60;346.50;;;9.70;99.90;;;;;;12324578;28;20047;-36
2023/12/25 21:40:56;;;;;;;379.73;356.52;;;9.70;99.90;;;;;;12323756;28;20513;-36
2023/12/25 21:46:58;;;;;;;394.33;370.20;;;9.60;99.90;;;;;;12327480;28;20104;-36
2023/12/25 21:53:01;;;;;;;399.80;375.45;;;9.60;99.90;;;;;;12320019;28;20074;-35
2023/12/25 21:59:03;;;;;;;396.63;372.33;;;9.60;99.90;;;;;;12328395;28;20057;-36
2023/12/25 22:05:05;;;;;;;402.33;377.58;;;9.60;99.90;;;;;;12324328;28;20078;-35
2023/12/25 22:11:07;;;;;;;392.27;368.50;;;9.60;99.90;;;;;;12326956;28;20058;-36
2023/12/25 22:17:09;;;;;;;407.52;382.75;;;9.50;99.90;;;;;;12320174;28;20089;-36
2023/12/25 22:23:11;;;;;;;393.15;369.60;;;9.50;99.90;;;;;;12319039;28;20055;-36
2023/12/25 22:29:13;;;;;;;408.48;384.15;;;9.60;99.90;;;;;;12329449;28;20065;-36
2023/12/25 22:35:15;;;;;;;391.40;368.35;;;9.60;99.90;;;;;;12323563;28;20090;-36
2023/12/25 22:41:17;;;;;;;393.92;370.80;;;9.70;99.90;;;;;;12322718;28;20051;-36
2023/12/25 22:47:19;;;;;;;434.98;409.45;;;9.90;99.90;;;;;;12325721;28;20130;-36
2023/12/25 22:53:21;;;;;;;437.13;411.95;;;10.00;99.90;;;;;;12327488;28;20053;-36
2023/12/25 22:59:24;;;;;;;455.17;428.92;;;10.10;99.90;;;;;;12323538;28;20525;-36
2023/12/25 23:05:26;;;;;;;493.80;465.48;;;10.10;99.90;;;;;;12334373;28;20195;-36
2023/12/25 23:11:28;;;;;;;493.42;464.88;;;10.30;99.90;;;;;;12327859;28;20399;-36
2023/12/25 23:17:30;;;;;;;500.65;471.80;;;10.30;99.90;;;;;;12345229;28;20051;-36
2023/12/25 23:23:32;;;;;;;471.75;444.75;;;10.30;99.90;;;;;;12334711;28;20059;-36
2023/12/25 23:29:34;;;;;;;497.33;468.45;;;10.30;99.90;;;;;;12324298;28;20054;-36
2023/12/25 23:35:36;;;;;;;498.13;469.30;;;10.40;99.90;;;;;;12322724;28;20039;-36
2023/12/25 23:41:38;;;;;;;526.20;495.38;;;10.40;99.90;;;;;;12322686;28;20439;-36
2023/12/25 23:47:40;;;;;;;520.10;489.90;;;10.30;99.90;;;;;;12322799;28;20055;-36
2023/12/25 23:53:42;;;;;;;551.35;519.35;;;10.30;99.90;;;;;;12339313;28;20537;-36
2023/12/25 23:59:44;;;;;;;561.78;528.85;;;10.40;99.90;;;;;;12326535;28;20044;-36
